• Join FlightAware (Why Join?)
  • Login
  • US Flag 
12:39PM EDT


 

Airport Tracker/Info


-or-


 

Live Flight TrackerFlight Track Log ✈ AAL832 ✈ 12-Aug-2013 ✈ KORD - KMIA

Flight Track Log - Related Links

Times and Time Zones

All times are in EDT time to prevent confusion due to time zone crossing. See the AAL832 flight status page for this flight to view local times or setup timezone preferences in your user account.

Time Position Orientation Groundspeed Altitude Reporting Facility
EDT Latitude Longitude Course Direction KTS MPH feet Rate Location/Type
06:56PM 41.9840 -87.9020 90° East 140 161  Level FlightAware
06:56PM 41.9840 -87.8790 90° East 170 196 1,300 3,000 Climbing FlightAware
06:56PM 41.9820 -87.8710 109° East 178 205 1,500 1,800 Climbing FlightAware
06:56PM 41.9810 -87.8670 109° East 181 208 1,700 2,400 Climbing FlightAware
06:56PM 41.9780 -87.8610 124° Southeast 187 215 1,900 1,500 Climbing FlightAware
06:57PM 41.9720 -87.8530 135° Southeast 190 219 2,100 1,560 Climbing FlightAware
06:57PM 41.9590 -87.8350 134° Southeast 203 234 2,700 1,800 Climbing FlightAware
06:57PM 41.9450 -87.8170 136° Southeast 215 247 3,300 1,560 Climbing FlightAware
06:57PM 41.9370 -87.8070 137° Southeast 226 260 3,500 1,560 Climbing FlightAware
06:58PM 41.9250 -87.7980 151° Southeast 234 269 3,900 1,560 Climbing FlightAware
06:58PM 41.9120 -87.7940 167° South 246 283 4,200 1,620 Climbing FlightAware
06:58PM 41.8880 -87.7910 175° South 268 308 4,800 2,400 Climbing FlightAware
06:59PM 41.8610 -87.7870 174° South 280 322 5,800 3,120 Climbing FlightAware
06:59PM 41.8310 -87.7820 173° South 282 325 7,100 3,180 Climbing FlightAware
06:59PM 41.8030 -87.7760 171° South 287 330 8,200 3,360 Climbing FlightAware
07:00PM 41.7750 -87.7710 172° South 290 334 9,400 3,060 Climbing FlightAware
07:00PM 41.7270 -87.7570 168° South 299 344 11,100 2,760 Climbing FlightAware
07:01PM 41.6860 -87.7490 172° South 309 356 12,500 2,100 Climbing FlightAware
07:01PM 41.6310 -87.7390 172° South 345 397 13,500 1,740 Climbing FlightAware
07:02PM 41.5720 -87.7220 168° South 374 430 14,600 2,460 Climbing FlightAware
07:03PM 41.5150 -87.7040 167° South 369 425 16,400 3,000 Climbing FlightAware
07:03PM 41.4550 -87.6870 168° South 366 421 18,100 2,520 Climbing FlightAware
07:04PM 41.3940 -87.6630 164° South 377 434 19,500 2,160 Climbing FlightAware
07:04PM 41.3350 -87.6350 160° South 385 443 20,800 1,920 Climbing FlightAware
07:05PM 41.2850 -87.6110 160° South 395 455 21,700 1,860 Climbing FlightAware
07:05PM 41.2270 -87.5710 153° Southeast 406 467 22,900 1,920 Climbing FlightAware
07:06PM 41.1690 -87.5240 149° Southeast 411 473 24,000 1,920 Climbing FlightAware
07:06PM 41.1440 -87.5100 157° South 405 466 24,500 1,860 Climbing FlightAware
07:07PM 41.0830 -87.4930 168° South 402 463 25,500 1,680 Climbing FlightAware
07:07PM 41.0140 -87.4750 169° South 407 468 26,500 1,380 Climbing FlightAware
07:08PM 40.9510 -87.4590 169° South 422 486 27,100 900 Climbing FlightAware
07:09PM 40.8840 -87.4430 170° South 436 502 27,600 960 Climbing FlightAware
07:09PM 40.8190 -87.4260 169° South 442 509 28,300 1,500 Climbing FlightAware
07:10PM 40.7360 -87.4050 169° South 443 510 29,400 1,620 Climbing FlightAware
07:10PM 40.6640 -87.3880 170° South 444 511 30,300 1,260 Climbing FlightAware
07:11PM 40.6020 -87.3720 169° South 447 514 30,900 1,140 Climbing FlightAware
07:12PM 40.5120 -87.3490 169° South 449 517 31,800 1,200 Climbing FlightAware
07:12PM 40.4350 -87.3260 167° South 462 532 32,500 1,140 Climbing FlightAware
07:13PM 40.3730 -87.2970 160° South 465 535 33,100 1,200 Climbing FlightAware
07:13PM 40.2980 -87.2620 160° South 464 534 33,900 1,140 Climbing FlightAware
07:14PM 40.2300 -87.2300 160° South 464 534 34,500 900 Climbing FlightAware
07:15PM 40.1500 -87.1930 161° South 461 531 35,000 420 Climbing FlightAware
07:15PM 40.0840 -87.1620 160° South 460 529 35,000  Level FlightAware
07:16PM 40.0140 -87.1290 160° South 462 532 35,000  Level FlightAware
07:16PM 39.9420 -87.0800 152° Southeast 477 549 35,000  Level FlightAware
07:17PM 39.8820 -87.0290 147° Southeast 477 549 35,000  Level FlightAware
07:17PM 39.8160 -86.9730 147° Southeast 476 548 35,000  Level FlightAware
07:18PM 39.7510 -86.9190 147° Southeast 475 547 35,000 60 Level FlightAware
07:19PM 39.6910 -86.8690 147° Southeast 479 551 35,100 660 Climbing FlightAware
07:19PM 39.6260 -86.8140 147° Southeast 475 547 35,800 1,140 Climbing FlightAware
07:20PM 39.5570 -86.7570 148° Southeast 471 542 36,500 960 Climbing FlightAware
07:20PM 39.4950 -86.7050 147° Southeast 469 540 37,000 420 Climbing FlightAware
07:21PM 39.4290 -86.6510 148° Southeast 468 539 37,000  Level FlightAware
07:22PM 39.3680 -86.6010 148° Southeast 465 535 37,000  Level FlightAware
07:22PM 39.3030 -86.5470 147° Southeast 466 536 37,000  Level FlightAware
07:23PM 39.2390 -86.4950 148° Southeast 464 534 37,000  Level FlightAware
07:23PM 39.1740 -86.4400 147° Southeast 463 533 37,000  Level FlightAware
07:24PM 39.1150 -86.3920 148° Southeast 464 534 37,000  Level FlightAware
07:24PM 39.0530 -86.3410 147° Southeast 462 532 37,000  Level FlightAware
07:25PM 38.9850 -86.2860 148° Southeast 461 531 37,000  Level FlightAware
07:26PM 38.9260 -86.2380 148° Southeast 460 529 37,000  Level FlightAware
07:26PM 38.8660 -86.1890 148° Southeast 461 531 37,000  Level FlightAware
07:27PM 38.7960 -86.1320 148° Southeast 463 533 37,000  Level FlightAware
07:27PM 38.7320 -86.0810 148° Southeast 465 535 37,000  Level FlightAware
07:28PM 38.6690 -86.0210 143° Southeast 479 551 37,000  Level FlightAware
07:29PM 38.6150 -85.9490 134° Southeast 486 559 37,000  Level FlightAware
07:29PM 38.5620 -85.8750 132° Southeast 487 560 37,000  Level FlightAware
07:30PM 38.5060 -85.7970 133° Southeast 488 562 37,000  Level FlightAware
07:30PM 38.4580 -85.7330 134° Southeast 490 564 37,000  Level FlightAware
07:31PM 38.4020 -85.6570 133° Southeast 491 565 37,000  Level FlightAware
07:31PM 38.3620 -85.5700 120° Southeast 514 592 37,000  Level FlightAware
07:32PM 38.3580 -85.4210 92° East 526 605 37,000  Level FlightAware
07:33PM 38.3640 -85.3220 86° East 527 606 37,000  Level FlightAware
07:33PM 38.3700 -85.2040 86° East 525 604 37,000  Level FlightAware
07:34PM 38.3760 -85.0930 86° East 523 602 37,000  Level FlightAware
07:35PM 38.3830 -84.9780 86° East 524 603 37,000  Level FlightAware
07:35PM 38.3880 -84.8970 85° East 524 603 37,000  Level FlightAware
07:36PM 38.3940 -84.7800 86° East 523 602 37,000  Level FlightAware
07:36PM 38.4010 -84.6650 86° East 522 601 37,000  Level FlightAware
07:37PM 38.4080 -84.5550 85° East 523 602 37,000  Level FlightAware
07:38PM 38.4140 -84.4440 86° East 524 603 37,000  Level FlightAware
07:38PM 38.4190 -84.3500 86° East 526 605 37,000  Level FlightAware
07:39PM 38.4260 -84.2390 85° East 527 606 37,000  Level FlightAware
07:39PM 38.4320 -84.1210 86° East 528 608 37,000  Level FlightAware
07:40PM 38.4380 -84.0180 86° East 530 610 37,000  Level FlightAware
07:40PM 38.4430 -83.9230 86° East 528 608 37,000  Level FlightAware
07:41PM 38.4510 -83.7980 85° East 532 612 37,000  Level FlightAware
07:42PM 38.4580 -83.6860 85° East 530 610 37,000  Level FlightAware
07:42PM 38.4650 -83.5800 85° East 529 609 37,000  Level FlightAware
07:43PM 38.4730 -83.4760 84° East 528 608 37,000  Level FlightAware
07:43PM 38.4700 -83.3530 92° East 518 596 37,000  Level FlightAware
07:44PM 38.4550 -83.3080 113° Southeast 509 586 37,000  Level FlightAware
07:44PM 38.4050 -83.2260 128° Southeast 496 571 37,000  Level FlightAware
07:45PM 38.3780 -83.1950 138° Southeast 489 563 37,000  Level FlightAware
07:45PM 38.3146 -83.1601 157° South 469 540 37,000  Level FlightAware ADS-B
07:46PM 38.2401 -83.1419 169° South 453 521 37,000  Level FlightAware ADS-B
07:46PM 38.1720 -83.1270 170° South 452 520 37,000  Level FlightAware
07:47PM 38.0970 -83.1100 170° South 451 519 37,000  Level FlightAware
07:47PM 38.0617 -83.1017 170° South 452 520 37,000  Level FlightAware ADS-B
07:48PM 37.9659 -83.0798 170° South 452 520 37,000  Level FlightAware ADS-B
07:49PM 37.8927 -83.0630 170° South 454 522 37,000  Level FlightAware ADS-B
07:49PM 37.8217 -83.0469 170° South 455 524 37,000  Level FlightAware ADS-B
07:50PM 37.7556 -83.0318 170° South 455 524 37,000  Level FlightAware ADS-B
07:50PM 37.6498 -83.0078 170° South 453 521 37,000  Level FlightAware ADS-B
07:51PM 37.5872 -82.9935 170° South 452 520 37,000  Level FlightAware ADS-B
07:52PM 37.5211 -82.9787 170° South 450 518 37,000  Level FlightAware ADS-B
07:52PM 37.4582 -82.9646 170° South 449 517 37,000  Level FlightAware ADS-B
07:53PM 37.3965 -82.9508 170° South 448 516 37,000  Level FlightAware ADS-B
07:53PM 37.3347 -82.9369 170° South 447 514 37,000  Level FlightAware ADS-B
07:54PM 37.2727 -82.9230 170° South 446 513 37,000  Level FlightAware ADS-B
07:54PM 37.2111 -82.9094 170° South 445 512 37,000  Level FlightAware ADS-B
07:55PM 37.1457 -82.8949 170° South 444 511 37,000  Level FlightAware ADS-B
07:55PM 37.0745 -82.8790 170° South 443 510 37,000  Level FlightAware ADS-B
07:56PM 37.0021 -82.8629 170° South 446 513 37,000  Level FlightAware ADS-B
07:56PM 36.9266 -82.8463 170° South 449 517 37,000  Level FlightAware ADS-B
07:57PM 36.8643 -82.8325 170° South 450 518 37,000  Level FlightAware ADS-B
07:57PM 36.8012 -82.8184 170° South 451 519 37,000  Level FlightAware ADS-B
07:58PM 36.7375 -82.8042 170° South 451 519 37,000  Level FlightAware ADS-B
07:58PM 36.6717 -82.7897 170° South 451 519 37,000  Level FlightAware ADS-B
07:59PM 36.6095 -82.7760 170° South 450 518 37,000  Level FlightAware ADS-B
08:00PM 36.5346 -82.7596 170° South 451 519 37,000  Level FlightAware ADS-B
08:00PM 36.4664 -82.7448 170° South 452 520 37,000  Level FlightAware ADS-B
08:01PM 36.4017 -82.7307 170° South 452 520 37,000  Level FlightAware ADS-B
08:01PM 36.3356 -82.7163 170° South 452 520 37,000  Level FlightAware ADS-B
08:02PM 36.2732 -82.7028 170° South 452 520 37,000  Level FlightAware ADS-B
08:02PM 36.2092 -82.6888 170° South 453 521 37,000  Level FlightAware ADS-B
08:03PM 36.1469 -82.6753 170° South 453 521 37,000  Level FlightAware ADS-B
08:03PM 36.0676 -82.6583 170° South 455 524 37,000  Level FlightAware ADS-B
08:04PM 36.0005 -82.6437 170° South 456 525 37,000  Level FlightAware ADS-B
08:04PM 35.9377 -82.6302 170° South 456 525 37,000  Level FlightAware ADS-B
08:05PM 35.8440 -82.6099 170° South 457 526 37,000  Level FlightAware ADS-B
08:06PM 35.7802 -82.5962 170° South 458 527 37,000  Level FlightAware ADS-B
08:06PM 35.7167 -82.5825 170° South 459 528 37,000  Level FlightAware ADS-B
08:07PM 35.6526 -82.5688 170° South 459 528 37,000  Level FlightAware ADS-B
08:07PM 35.5897 -82.5553 170° South 458 527 37,000  Level FlightAware ADS-B
08:08PM 35.5266 -82.5420 170° South 458 527 37,000  Level FlightAware ADS-B
08:08PM 35.4621 -82.5282 170° South 459 528 37,000  Level FlightAware ADS-B
08:09PM 35.3969 -82.5143 170° South 457 526 37,000  Level FlightAware ADS-B
08:09PM 35.3222 -82.4984 170° South 454 522 37,000  Level FlightAware ADS-B
08:10PM 35.2478 -82.4824 170° South 453 521 37,000  Level FlightAware ADS-B
08:10PM 35.1839 -82.4689 170° South 453 521 37,000  Level FlightAware ADS-B
08:11PM 35.0935 -82.4499 170° South 451 519 37,000  Level FlightAware ADS-B
08:12PM 35.0311 -82.4367 170° South 450 518 37,000  Level FlightAware ADS-B
08:12PM 34.9678 -82.4234 170° South 449 517 37,000  Level FlightAware ADS-B
08:13PM 34.9062 -82.4104 170° South 450 518 37,000  Level FlightAware ADS-B
08:13PM 34.8441 -82.3973 170° South 450 518 37,000  Level FlightAware ADS-B
08:14PM 34.7819 -82.3843 170° South 453 521 37,000  Level FlightAware ADS-B
08:14PM 34.7193 -82.3713 170° South 456 525 37,000  Level FlightAware ADS-B
08:15PM 34.6124 -82.3489 170° South 455 524 37,000  Level FlightAware ADS-B
08:16PM 34.5430 -82.3350 171° South 456 525 37,000  Level FlightAware
08:16PM 34.4520 -82.3160 170° South 457 526 37,000  Level FlightAware
08:17PM 34.3900 -82.3030 170° South 459 528 37,000  Level FlightAware
08:17PM 34.3170 -82.2870 170° South 461 531 37,000  Level FlightAware
08:18PM 34.2430 -82.2720 170° South 463 533 37,000  Level FlightAware
08:19PM 34.1580 -82.2550 171° South 466 536 37,000  Level FlightAware
08:19PM 34.0950 -82.2420 170° South 465 535 37,000  Level FlightAware
08:20PM 34.0210 -82.2270 170° South 464 534 37,000  Level FlightAware
08:20PM 33.9510 -82.2120 170° South 464 534 37,000  Level FlightAware
08:21PM 33.8750 -82.1960 170° South 464 534 37,000 240 Level FlightAware
08:22PM 33.7980 -82.1810 171° South 460 529 37,300 600 Climbing FlightAware
08:22PM 33.7270 -82.1660 170° South 461 531 37,800 600 Climbing FlightAware
08:23PM 33.6470 -82.1550 173° South 460 529 38,000 180 Climbing FlightAware
08:23PM 33.5850 -82.1480 175° South 459 528 38,000  Level FlightAware
08:24PM 33.5140 -82.1400 175° South 458 527 38,000  Level FlightAware
08:25PM 33.4150 -82.1270 174° South 459 528 38,000  Level FlightAware
08:25PM 33.3760 -82.1160 167° South 461 531 38,000  Level FlightAware
08:25PM 33.3250 -82.0970 163° South 464 534 38,000  Level FlightAware
08:26PM 33.2460 -82.0680 163° South 468 539 38,000  Level FlightAware
08:27PM 33.1660 -82.0390 163° South 470 541 38,000  Level FlightAware
08:27PM 33.0880 -82.0120 164° South 471 542 38,000  Level FlightAware
08:28PM 33.0280 -81.9910 164° South 471 542 38,000  Level FlightAware
08:28PM 32.9590 -81.9670 164° South 468 539 38,000  Level FlightAware
08:29PM 32.8460 -81.9320 165° South 464 534 38,000  Level FlightAware
08:30PM 32.7720 -81.9310 179° South 464 534 38,000  Level FlightAware
08:30PM 32.7720 -81.9310 179° South 463 533 38,000  Level FlightAware
08:31PM 32.6020 -81.9480 185° South 462 532 38,000  Level FlightAware
08:31PM 32.5420 -81.9550 186° South 461 531 38,000  Level FlightAware
08:32PM 32.4420 -81.9660 185° South 461 531 38,000  Level FlightAware
08:33PM 32.3700 -81.9740 185° South 461 531 38,000  Level FlightAware
08:33PM 32.2850 -81.9830 185° South 461 531 38,000  Level FlightAware
08:34PM 32.1800 -81.9950 186° South 460 529 38,000  Level FlightAware
08:35PM 32.1150 -82.0030 186° South 460 529 38,000  Level FlightAware
08:36PM 32.0510 -82.0110 186° South 460 529 38,000  Level FlightAware
08:36PM 31.9860 -82.0190 186° South 460 529 38,000  Level FlightAware
08:37PM 31.9190 -82.0270 186° South 460 529 38,000  Level FlightAware
08:37PM 31.8550 -82.0350 186° South 460 529 38,000  Level FlightAware
08:38PM 31.7900 -82.0430 186° South 460 529 38,000  Level FlightAware
08:39PM 31.7250 -82.0510 186° South 460 529 38,000  Level FlightAware
08:39PM 31.6600 -82.0590 186° South 460 529 38,000  Level FlightAware
08:40PM 31.5940 -82.0680 187° South 460 529 38,000  Level FlightAware
08:40PM 31.5270 -82.0760 186° South 460 529 38,000  Level FlightAware
08:41PM 31.4620 -82.0840 186° South 460 529 38,000  Level FlightAware
08:42PM 31.3960 -82.0920 186° South 460 529 38,000  Level FlightAware
08:42PM 31.3310 -82.1000 186° South 460 529 38,000  Level FlightAware
08:43PM 31.2660 -82.1080 186° South 460 529 38,000  Level FlightAware
08:44PM 31.2000 -82.1160 186° South 460 529 38,000  Level FlightAware
08:45PM 30.8939 -82.3431 186° South 463 533 38,000  Level Jacksonville Center
08:46PM 30.7750 -82.4089 205° Southwest 463 533 38,000  Level Jacksonville Center
08:47PM 30.6583 -82.4722 205° Southwest 463 533 38,000  Level Jacksonville Center
08:48PM 30.5458 -82.5547 212° Southwest 469 540 38,000  Level Jacksonville Center
08:49PM 30.4667 -82.6300 219° Southwest 474 545 38,000 120 Level Jacksonville Center
08:55PM 29.8590 -83.1690 219° Southwest 453 521 39,000 120 Climbing FlightAware
08:55PM 29.8010 -83.2200 217° Southwest 458 527 39,000  Level FlightAware
08:56PM 29.7300 -83.2620 207° Southwest 461 531 39,000  Level FlightAware
08:56PM 29.6600 -83.2880 198° South 453 521 39,000  Level FlightAware
08:57PM 29.5870 -83.3050 191° South 449 517 39,000  Level FlightAware
08:58PM 29.4800 -83.3080 181° South 447 514 39,000  Level FlightAware
08:58PM 29.3970 -83.3060 179° South 454 522 39,000  Level FlightAware
08:59PM 29.3230 -83.3050 179° South 454 522 39,000  Level FlightAware
09:00PM 29.2390 -83.3030 179° South 453 521 39,000  Level FlightAware
09:00PM 29.1650 -83.3030 180° South 453 521 39,000  Level FlightAware
09:01PM 29.0840 -83.2950 175° South 440 506 39,000  Level FlightAware
09:01PM 29.0210 -83.2870 174° South 440 506 39,000  Level FlightAware
09:02PM 28.9490 -83.2780 174° South 438 504 39,000  Level FlightAware
09:03PM 28.8690 -83.2580 168° South 440 506 39,000  Level FlightAware
09:03PM 28.8120 -83.2330 159° South 437 503 39,000  Level FlightAware
09:04PM 28.7470 -83.2000 156° South 435 501 39,000  Level FlightAware
09:04PM 28.6760 -83.1590 153° Southeast 436 502 39,000  Level FlightAware
09:05PM 28.6230 -83.1280 153° Southeast 435 501 39,000  Level FlightAware
09:05PM 28.5590 -83.0900 152° Southeast 436 502 39,000  Level FlightAware
09:06PM 28.4860 -83.0480 153° Southeast 436 502 39,000  Level FlightAware
09:07PM 28.4240 -83.0130 154° Southeast 436 502 39,000  Level FlightAware
09:07PM 28.3700 -82.9820 153° Southeast 435 501 39,000  Level FlightAware
09:08PM 28.3080 -82.9460 153° Southeast 436 502 39,000  Level FlightAware
09:08PM 28.2350 -82.9050 154° Southeast 430 495 39,000  Level FlightAware
09:09PM 28.1710 -82.8680 153° Southeast 430 495 39,000  Level FlightAware
09:10PM 28.1180 -82.8380 153° Southeast 436 502 39,000  Level FlightAware
09:10PM 28.0450 -82.7960 153° Southeast 437 503 39,000  Level FlightAware
09:11PM 27.9910 -82.7650 153° Southeast 435 501 39,000  Level FlightAware
09:11PM 27.9060 -82.7250 157° South 440 506 39,000  Level FlightAware
09:12PM 27.8410 -82.6970 159° South 428 493 39,000  Level FlightAware
09:13PM 27.7760 -82.6460 145° Southeast 421 484 39,000  Level FlightAware
09:13PM 27.7210 -82.5960 141° Southeast 421 484 39,000  Level FlightAware
09:14PM 27.6670 -82.5470 141° Southeast 421 484 39,000  Level FlightAware
09:14PM 27.6140 -82.4980 141° Southeast 423 487 39,000  Level FlightAware
09:15PM 27.5580 -82.4480 142° Southeast 431 496 39,000  Level FlightAware
09:16PM 27.4970 -82.3930 141° Southeast 433 498 39,000  Level FlightAware
09:16PM 27.4500 -82.3500 141° Southeast 435 501 39,000  Level FlightAware
09:17PM 27.3950 -82.3000 141° Southeast 437 503 39,000  Level FlightAware
09:17PM 27.3320 -82.2430 141° Southeast 440 506 39,000  Level FlightAware
09:18PM 27.2840 -82.2000 141° Southeast 434 499 39,000 -480 Level FlightAware
09:19PM 27.2140 -82.1370 141° Southeast 435 501 38,400 -1,380 Descending FlightAware
09:19PM 27.1550 -82.0840 141° Southeast 429 494 37,200 -1,920 Descending FlightAware
09:20PM 27.1070 -82.0410 141° Southeast 432 497 36,200 -1,860 Descending FlightAware
09:20PM 27.0500 -81.9900 141° Southeast 436 502 35,100 -1,860 Descending FlightAware
09:21PM 26.9900 -81.9360 141° Southeast 439 505 34,000 -1,800 Descending FlightAware
09:22PM 26.9350 -81.8870 142° Southeast 441 507 33,000 -1,680 Descending FlightAware
09:22PM 26.8830 -81.8400 141° Southeast 441 507 32,100 -1,980 Descending FlightAware
09:23PM 26.8210 -81.7850 142° Southeast 447 514 30,700 -2,340 Descending FlightAware
09:23PM 26.7680 -81.7380 142° Southeast 458 527 29,400 -2,460 Descending FlightAware
09:24PM 26.7100 -81.6870 142° Southeast 466 536 28,000 -2,400 Descending FlightAware
09:25PM 26.6560 -81.6390 142° Southeast 452 520 26,600 -2,580 Descending FlightAware
09:25PM 26.5940 -81.5840 142° Southeast 442 509 25,000 -2,520 Descending FlightAware
09:26PM 26.5400 -81.5360 142° Southeast 434 499 23,700 -2,220 Descending FlightAware
09:26PM 26.4920 -81.4940 142° Southeast 420 483 22,600 -2,160 Descending FlightAware
09:27PM 26.4330 -81.4410 141° Southeast 412 474 21,200 -2,100 Descending FlightAware
09:27PM 26.3800 -81.3950 142° Southeast 410 472 20,000 -2,100 Descending FlightAware
09:28PM 26.3290 -81.3500 142° Southeast 395 455 18,800 -2,160 Descending FlightAware
09:29PM 26.2780 -81.3050 142° Southeast 393 452 17,500 -2,160 Descending FlightAware
09:29PM 26.2290 -81.2620 142° Southeast 378 435 16,300 -2,160 Descending FlightAware
09:30PM 26.1790 -81.2180 142° Southeast 373 429 15,000 -1,920 Descending FlightAware
09:30PM 26.1380 -81.1820 142° Southeast 373 429 14,200 -1,500 Descending FlightAware
09:31PM 26.0840 -81.1350 142° Southeast 370 426 13,300 -1,680 Descending FlightAware
09:32PM 26.0390 -81.0950 141° Southeast 352 405 12,200 -1,800 Descending FlightAware
09:32PM 25.9930 -81.0550 142° Southeast 338 389 11,200 -1,560 Descending FlightAware
09:32PM 25.9710 -81.0300 134° Southeast 327 376 10,800 -840 Descending FlightAware
09:33PM 25.9580 -80.9860 108° East 301 346 10,500 -720 Descending FlightAware
09:33PM 25.9510 -80.9410 100° East 284 327 10,100 -1,080 Descending FlightAware
09:34PM 25.9460 -80.9050 99° East 281 323 9,500 -1,500 Descending FlightAware
09:34PM 25.9410 -80.8770 101° East 278 320 9,000 -1,440 Descending FlightAware
09:35PM 25.9370 -80.8500 99° East 277 319 8,600 -1,320 Descending FlightAware
09:35PM 25.9330 -80.8210 99° East 276 318 8,100 -1,500 Descending FlightAware
09:35PM 25.9270 -80.7870 101° East 274 315 7,500 -1,560 Descending FlightAware
09:36PM 25.9230 -80.7590 99° East 269 310 7,000 -1,380 Descending FlightAware
09:36PM 25.9190 -80.7310 99° East 267 307 6,600 -1,680 Descending FlightAware
09:36PM 25.9140 -80.7040 102° East 266 306 5,900 -2,040 Descending FlightAware
09:37PM 25.9090 -80.6710 100° East 264 304 5,100 -1,920 Descending FlightAware
09:37PM 25.9050 -80.6440 99° East 262 302 4,500 -1,800 Descending FlightAware
09:37PM 25.9010 -80.6170 99° East 258 297 3,900 -1,680 Descending FlightAware
09:38PM 25.8970 -80.5920 100° East 254 292 3,400 -1,380 Descending FlightAware
09:38PM 25.8920 -80.5590 100° East 244 281 2,900 -720 Descending FlightAware
09:38PM 25.8880 -80.5370 101° East 222 255 2,900  Level FlightAware
09:39PM 25.8860 -80.5250 100° East 210 242 2,900  Level FlightAware
09:39PM 25.8820 -80.5010 100° East 182 209 2,900  Level FlightAware
09:39PM 25.8800 -80.4830 97° East 170 196 2,900  Level FlightAware
09:40PM 25.8770 -80.4660 101° East 164 189 2,900  Level FlightAware
09:40PM 25.8740 -80.4500 102° East 161 185 2,900 -360 Level FlightAware
09:40PM 25.8690 -80.4390 117° Southeast 164 189 2,700 -900 Descending FlightAware
09:41PM 25.8610 -80.4240 121° Southeast 165 190 2,400 -900 Descending FlightAware
09:41PM 25.8550 -80.4120 119° Southeast 165 190 2,200 -1,080 Descending FlightAware
09:41PM 25.8480 -80.3980 119° Southeast 171 197 1,800 -1,080 Descending FlightAware
09:42PM 25.8400 -80.3820 119° Southeast 167 192 1,500 -1,080 Descending FlightAware
09:42PM 25.8350 -80.3710 117° Southeast 157 181 1,200 -900 Descending FlightAware
09:42PM 25.8270 -80.3570 122° Southeast 146 168 1,000 -780 Descending FlightAware
09:42PM 25.8210 -80.3450 119° Southeast 144 166 700 -840 Descending FlightAware
09:43PM 25.8130 -80.3290 119° Southeast 144 166 400 -720 Descending FlightAware
09:43PM 25.8100 -80.3230 119° Southeast 144 166 300 -600 Descending FlightAware
09:43PM 25.8020 -80.3070 119° Southeast 149 171 -840 Descending FlightAware
09:44PM 25.7950 -80.2940 121° Southeast 135 155  Level FlightAware